createdAt,value
2023-07-24T00:00:10.890Z,97992.06
2023-07-24T00:03:34.622Z,97984.81
2023-07-24T00:06:38.780Z,97992.88
2023-07-24T00:09:42.825Z,97994.63
2023-07-24T00:12:47.082Z,98002.22
2023-07-24T00:15:52.258Z,97993.28
2023-07-24T00:18:55.998Z,97998.09
2023-07-24T00:21:59.780Z,98003.44
2023-07-24T00:25:03.446Z,98006.63
2023-07-24T00:28:07.239Z,98003.22
2023-07-24T00:31:12.509Z,98002.72
2023-07-24T00:34:16.466Z,98004.16
2023-07-24T00:37:20.759Z,97997.34
2023-07-24T00:40:24.530Z,97998.28
2023-07-24T00:43:28.105Z,97996.50
2023-07-24T00:46:34.908Z,97989.50
2023-07-24T00:49:38.929Z,97992.19
2023-07-24T00:52:43.898Z,97994.19
2023-07-24T00:55:49.707Z,97989.69
2023-07-24T00:58:54.651Z,97989.22
2023-07-24T01:02:00.068Z,97987.19
2023-07-24T01:05:04.283Z,97993.59
2023-07-24T01:08:08.406Z,97982.25
2023-07-24T01:11:18.243Z,97985.72
2023-07-24T01:14:28.039Z,97985.31
2023-07-24T01:17:35.455Z,97980.72
2023-07-24T01:20:45.226Z,97976.63
2023-07-24T01:24:01.574Z,97980.25
2023-07-24T01:27:06.793Z,97983.78
2023-07-24T01:30:11.859Z,97973.59
2023-07-24T01:33:16.293Z,97971.13
2023-07-24T01:36:22.649Z,97977.81
2023-07-24T01:39:27.087Z,97961.34
2023-07-24T01:42:32.965Z,97964.25
2023-07-24T01:45:37.063Z,97960.25
2023-07-24T01:48:40.869Z,97965.56
2023-07-24T01:51:44.940Z,97957.53
2023-07-24T01:54:49.186Z,97953.81
2023-07-24T01:57:54.784Z,97958.84
2023-07-24T02:00:58.556Z,97955.63
2023-07-24T02:04:02.786Z,97951.56
2023-07-24T02:07:07.244Z,97953.81
2023-07-24T02:10:11.952Z,97950.94
2023-07-24T02:13:17.389Z,97949.66
2023-07-24T02:16:26.396Z,97951.66
2023-07-24T02:19:30.254Z,97954.47
2023-07-24T02:22:34.450Z,97960.56
2023-07-24T02:25:38.480Z,97954.88
2023-07-24T02:28:43.639Z,97951.13
2023-07-24T02:31:47.435Z,97950.59
2023-07-24T02:34:51.925Z,97943.78
2023-07-24T02:37:55.835Z,97950.91
2023-07-24T02:40:59.774Z,97951.50
2023-07-24T02:44:06.801Z,97951.03
2023-07-24T02:47:11.660Z,97946.25
2023-07-24T02:50:15.624Z,97947.69
2023-07-24T02:53:19.660Z,97952.91
2023-07-24T02:56:23.696Z,97942.91
2023-07-24T02:59:28.789Z,97946.75
2023-07-24T03:02:32.689Z,97944.91
2023-07-24T03:05:36.911Z,97946.53
2023-07-24T03:08:41.137Z,97946.53
2023-07-24T03:11:45.044Z,97939.41
2023-07-24T03:14:50.542Z,97951.13
2023-07-24T03:17:54.403Z,97947.06
2023-07-24T03:21:00.495Z,97942.22
2023-07-24T03:24:04.489Z,97940.88
2023-07-24T03:27:08.426Z,97943.31
2023-07-24T03:30:14.054Z,97944.63
2023-07-24T03:33:18.769Z,97944.81
2023-07-24T03:36:24.681Z,97937.34
2023-07-24T03:39:29.114Z,97944.97
2023-07-24T03:42:33.988Z,97945.78
2023-07-24T03:45:39.124Z,97947.63
2023-07-24T03:48:43.077Z,97947.88
2023-07-24T03:51:46.890Z,97955.69
2023-07-24T03:54:50.671Z,97953.59
2023-07-24T03:57:54.667Z,97956.22
2023-07-24T04:00:59.964Z,97959.44
2023-07-24T04:04:03.856Z,97941.00
2023-07-24T04:07:08.326Z,97947.44
2023-07-24T04:10:12.129Z,97952.84
2023-07-24T04:13:15.800Z,97956.94
2023-07-24T04:16:20.992Z,97964.00
2023-07-24T04:19:24.938Z,97961.25
2023-07-24T04:22:28.641Z,97957.66
2023-07-24T04:25:32.578Z,97959.56
2023-07-24T04:28:36.366Z,97944.13
2023-07-24T04:31:41.672Z,97949.00
2023-07-24T04:34:45.473Z,97951.66
2023-07-24T04:37:49.218Z,97953.75
2023-07-24T04:40:53.156Z,97949.75
2023-07-24T04:43:57.048Z,97949.91
2023-07-24T04:47:03.675Z,97958.31
2023-07-24T04:50:08.601Z,97952.78
2023-07-24T04:53:12.468Z,97953.81
2023-07-24T04:56:16.344Z,97951.00
2023-07-24T04:59:20.406Z,97949.84
2023-07-24T05:02:25.582Z,97943.69
2023-07-24T05:05:29.424Z,97946.78
2023-07-24T05:08:33.289Z,97942.47
2023-07-24T05:11:37.056Z,97949.91
2023-07-24T05:14:41.112Z,97964.22
2023-07-24T05:17:46.822Z,97952.28
2023-07-24T05:20:52.771Z,97954.03
2023-07-24T05:23:57.071Z,97954.94
2023-07-24T05:27:00.865Z,97956.06
2023-07-24T05:30:04.976Z,97943.81
2023-07-24T05:33:10.054Z,97954.78
2023-07-24T05:36:13.955Z,97950.38
2023-07-24T05:39:17.516Z,97954.56
2023-07-24T05:42:21.424Z,97940.94
2023-07-24T05:45:25.220Z,97932.78
2023-07-24T05:48:30.360Z,97933.34
2023-07-24T05:51:34.268Z,97930.41
2023-07-24T05:54:37.974Z,97937.00
2023-07-24T05:57:41.859Z,97931.44
2023-07-24T06:00:45.632Z,97937.38
2023-07-24T06:03:50.765Z,97946.47
2023-07-24T06:06:54.523Z,97934.06
2023-07-24T06:09:58.068Z,97947.47
2023-07-24T06:13:01.756Z,97946.50
2023-07-24T06:16:05.864Z,97931.22
2023-07-24T06:19:11.038Z,97929.84
2023-07-24T06:22:14.912Z,97933.63
2023-07-24T06:25:18.829Z,97944.22
2023-07-24T06:28:22.544Z,97931.81
2023-07-24T06:31:26.329Z,97924.91
2023-07-24T06:34:31.389Z,97931.22
2023-07-24T06:37:35.155Z,97928.19
2023-07-24T06:40:38.870Z,97914.47
2023-07-24T06:43:42.866Z,97910.59
2023-07-24T06:46:46.537Z,97916.28
2023-07-24T06:49:51.570Z,97915.19
2023-07-24T06:52:58.284Z,97914.38
2023-07-24T06:56:02.040Z,97911.28
2023-07-24T06:59:05.888Z,97908.34
2023-07-24T07:02:09.690Z,97917.44
2023-07-24T07:05:14.668Z,97899.31
2023-07-24T07:08:18.566Z,97905.44
2023-07-24T07:11:22.151Z,97898.59
2023-07-24T07:14:26.102Z,97890.13
2023-07-24T07:17:30.345Z,97890.53
2023-07-24T07:20:35.577Z,97885.78
2023-07-24T07:23:39.966Z,97887.69
2023-07-24T07:26:43.677Z,97877.78
2023-07-24T07:29:48.057Z,97874.59
2023-07-24T07:32:51.771Z,97883.78
2023-07-24T07:35:59.428Z,97894.44
2023-07-24T07:39:03.794Z,97900.88
2023-07-24T07:42:17.516Z,97887.28
2023-07-24T07:45:22.729Z,97880.00
2023-07-24T07:48:26.140Z,97887.84
2023-07-24T07:51:31.259Z,97887.88
2023-07-24T07:54:34.707Z,97893.13
2023-07-24T07:57:39.231Z,97880.25
2023-07-24T08:00:42.800Z,97885.31
2023-07-24T08:03:46.924Z,97876.78
2023-07-24T08:06:51.805Z,97881.56
2023-07-24T08:09:55.939Z,97882.22
2023-07-24T08:12:59.372Z,97873.13
2023-07-24T08:16:04.882Z,97868.50
2023-07-24T08:19:08.687Z,97882.31
2023-07-24T08:22:14.490Z,97872.63
2023-07-24T08:25:18.337Z,97874.72
2023-07-24T08:28:23.177Z,97875.22
2023-07-24T08:31:26.715Z,97881.09
2023-07-24T08:34:31.265Z,97884.38
2023-07-24T08:37:36.364Z,97877.41
2023-07-24T08:40:40.449Z,97854.69
2023-07-24T08:43:45.617Z,97853.78
2023-07-24T08:46:51.518Z,97850.41
2023-07-24T08:49:56.980Z,97837.63
2023-07-24T08:53:05.606Z,97845.78
2023-07-24T08:56:11.293Z,97843.16
2023-07-24T08:59:15.398Z,97844.84
2023-07-24T09:02:18.894Z,97840.00
2023-07-24T09:05:23.458Z,97849.31
2023-07-24T09:08:36.039Z,97849.78
2023-07-24T09:11:48.841Z,97845.28
2023-07-24T09:15:03.823Z,97836.78
2023-07-24T09:18:07.993Z,97834.59
2023-07-24T09:21:13.203Z,97818.25
2023-07-24T09:24:18.777Z,97818.97
2023-07-24T09:27:24.296Z,97819.09
2023-07-24T09:30:28.581Z,97815.41
2023-07-24T09:33:39.568Z,97826.31
2023-07-24T09:36:43.946Z,97814.53
2023-07-24T09:39:50.249Z,97825.84
2023-07-24T09:46:03.766Z,97832.72
2023-07-24T09:49:09.494Z,97808.72
2023-07-24T09:52:14.964Z,97796.50
2023-07-24T09:55:24.486Z,97789.44
2023-07-24T09:58:28.728Z,97784.97
2023-07-24T10:01:34.987Z,97785.88
2023-07-24T10:04:41.331Z,97795.53
2023-07-24T10:07:45.991Z,97780.28
2023-07-24T10:10:53.381Z,97767.34
2023-07-24T10:13:57.896Z,97779.31
2023-07-24T10:17:01.309Z,97768.97
2023-07-24T10:20:07.865Z,97764.81
2023-07-24T10:23:17.847Z,97762.44
2023-07-24T10:26:28.551Z,97755.44
2023-07-24T10:29:37.908Z,97760.38
2023-07-24T10:32:50.849Z,97754.44
2023-07-24T10:35:57.358Z,97748.28
2023-07-24T10:39:02.648Z,97750.97
2023-07-24T10:42:10.809Z,97745.03
2023-07-24T10:45:15.118Z,97731.97
2023-07-24T10:48:19.799Z,97759.28
2023-07-24T10:51:23.996Z,97732.41
2023-07-24T10:54:27.591Z,97765.16
2023-07-24T10:57:33.198Z,97737.19
2023-07-24T11:00:37.069Z,97735.03
2023-07-24T11:03:43.904Z,97748.47
2023-07-24T11:06:58.283Z,97742.34
2023-07-24T11:10:02.944Z,97744.38
2023-07-24T11:13:12.863Z,97754.94
2023-07-24T11:16:16.590Z,97738.22
2023-07-24T11:19:25.369Z,97749.25
2023-07-24T11:22:29.283Z,97760.44
2023-07-24T11:25:32.856Z,97743.09
2023-07-24T11:28:43.392Z,97740.91
2023-07-24T11:31:46.991Z,97735.03
2023-07-24T11:34:52.944Z,97734.09
2023-07-24T11:37:56.511Z,97733.94
2023-07-24T11:41:02.482Z,97736.50
2023-07-24T11:44:07.475Z,97743.31
2023-07-24T11:47:11.547Z,97729.78
2023-07-24T11:50:15.728Z,97735.03
2023-07-24T11:53:25.033Z,97724.22
2023-07-24T11:56:28.591Z,97728.66
2023-07-24T11:59:40.678Z,97719.81
2023-07-24T12:02:44.404Z,97707.22
2023-07-24T12:05:50.621Z,97708.34
2023-07-24T12:09:05.635Z,97709.06
2023-07-24T12:12:16.255Z,97694.28
2023-07-24T12:15:21.923Z,97715.66
2023-07-24T12:18:25.862Z,97698.94
2023-07-24T12:21:30.053Z,97688.94
2023-07-24T12:24:34.613Z,97678.69
2023-07-24T12:27:38.564Z,97687.69
2023-07-24T12:30:43.963Z,97662.91
2023-07-24T12:33:47.725Z,97659.16
2023-07-24T12:36:53.866Z,97640.44
2023-07-24T12:39:57.405Z,97645.59
2023-07-24T12:43:01.200Z,97646.19
2023-07-24T12:46:06.089Z,97667.44
2023-07-24T12:49:10.092Z,97657.06
2023-07-24T12:52:13.710Z,97655.50
2023-07-24T12:55:17.980Z,97643.53
2023-07-24T12:58:21.613Z,97639.53
2023-07-24T13:01:30.867Z,97623.06
2023-07-24T13:04:34.756Z,97624.88
2023-07-24T13:07:38.702Z,97609.09
2023-07-24T13:10:42.096Z,97612.53
2023-07-24T13:13:46.473Z,97613.84
2023-07-24T13:16:51.919Z,97605.78
2023-07-24T13:19:55.899Z,97602.03
2023-07-24T13:22:59.456Z,97598.28
2023-07-24T13:26:03.789Z,97605.69
2023-07-24T13:29:07.269Z,97590.19
2023-07-24T13:32:13.150Z,97592.81
2023-07-24T13:35:18.011Z,97587.28
2023-07-24T13:38:22.629Z,97586.38
2023-07-24T13:41:26.543Z,97577.44
2023-07-24T13:44:30.856Z,97565.97
2023-07-24T13:47:35.881Z,97576.06
2023-07-24T13:50:39.784Z,97562.78
2023-07-24T13:53:43.594Z,97557.38
2023-07-24T13:56:47.782Z,97548.78
2023-07-24T13:59:51.408Z,97526.06
2023-07-24T14:02:56.809Z,97519.31
2023-07-24T14:06:00.483Z,97516.88
2023-07-24T14:09:05.141Z,97512.75
2023-07-24T14:12:09.748Z,97510.13
2023-07-24T14:15:14.098Z,97507.66
2023-07-24T14:18:18.969Z,97509.81
2023-07-24T14:21:22.857Z,97510.38
2023-07-24T14:24:26.399Z,97512.88
2023-07-24T14:27:30.621Z,97517.72
2023-07-24T14:30:34.211Z,97522.16
2023-07-24T14:33:39.613Z,97505.78
2023-07-24T14:36:43.262Z,97498.31
2023-07-24T14:39:47.124Z,97502.41
2023-07-24T14:42:50.730Z,97503.56
2023-07-24T14:45:54.648Z,97489.28
2023-07-24T14:48:59.856Z,97476.44
2023-07-24T14:52:04.241Z,97465.16
2023-07-24T14:55:09.965Z,97448.22
2023-07-24T14:58:14.222Z,97449.13
2023-07-24T15:01:18.196Z,97438.31
2023-07-24T15:04:25.015Z,97436.22
2023-07-24T15:07:28.844Z,97424.53
2023-07-24T15:10:32.818Z,97409.25
2023-07-24T15:13:36.306Z,97395.25
2023-07-24T15:16:40.419Z,97382.03
2023-07-24T15:19:45.504Z,97396.50
2023-07-24T15:22:49.435Z,97413.41
2023-07-24T15:25:52.974Z,97423.44
2023-07-24T15:28:57.310Z,97442.22
2023-07-24T15:32:00.829Z,97508.16
2023-07-24T15:35:07.806Z,97574.88
2023-07-24T15:38:11.432Z,97640.75
2023-07-24T15:41:15.831Z,97630.34
2023-07-24T15:44:19.423Z,97637.13
2023-07-24T15:47:24.417Z,97559.63
2023-07-24T15:50:29.539Z,97536.47
2023-07-24T15:53:33.551Z,97530.09
2023-07-24T15:56:37.389Z,97493.19
2023-07-24T15:59:41.430Z,97486.66
2023-07-24T16:02:45.239Z,97483.00
2023-07-24T16:05:50.726Z,97461.78
2023-07-24T16:08:54.247Z,97471.19
2023-07-24T16:11:57.940Z,97482.56
2023-07-24T16:15:01.649Z,97498.72
2023-07-24T16:18:06.710Z,97509.72
2023-07-24T16:21:11.952Z,97483.38
2023-07-24T16:24:18.341Z,97488.22
2023-07-24T16:27:24.002Z,97465.78
2023-07-24T16:30:28.215Z,97452.88
2023-07-24T16:33:31.801Z,97444.44
2023-07-24T16:36:37.200Z,97431.78
2023-07-24T16:39:41.171Z,97432.09
2023-07-24T16:42:46.606Z,97421.94
2023-07-24T16:48:59.584Z,97404.44
2023-07-24T16:52:04.638Z,97411.38
2023-07-24T16:55:09.909Z,97418.00
2023-07-24T16:58:13.360Z,97414.03
2023-07-24T17:01:17.472Z,97421.09
2023-07-24T17:04:21.047Z,97431.75
2023-07-24T17:07:26.492Z,97423.53
2023-07-24T17:10:43.088Z,97437.00
2023-07-24T17:13:48.131Z,97424.38
2023-07-24T17:16:51.560Z,97414.53
2023-07-24T17:19:55.621Z,97406.06
2023-07-24T17:23:00.784Z,97392.41
2023-07-24T17:26:04.734Z,97379.72
2023-07-24T17:29:08.514Z,97374.69
2023-07-24T17:32:14.058Z,97366.53
2023-07-24T17:35:17.616Z,97373.47
2023-07-24T17:38:23.215Z,97367.25
2023-07-24T17:41:28.139Z,97364.94
2023-07-24T17:44:32.688Z,97369.97
2023-07-24T17:47:36.427Z,97389.31
2023-07-24T17:50:40.401Z,97396.03
2023-07-24T17:53:45.392Z,97391.88
2023-07-24T17:56:49.479Z,97394.59
2023-07-24T17:59:53.147Z,97394.00
2023-07-24T18:02:57.348Z,97404.63
2023-07-24T18:06:01.042Z,97408.41
2023-07-24T18:09:06.525Z,97401.84
2023-07-24T18:12:10.579Z,97399.31
2023-07-24T18:15:14.642Z,97401.31
2023-07-24T18:18:18.177Z,97404.38
2023-07-24T18:21:22.181Z,97409.91
2023-07-24T18:24:27.200Z,97409.94
2023-07-24T18:27:31.173Z,97391.06
2023-07-24T18:30:35.075Z,97406.72
2023-07-24T18:33:39.025Z,97404.31
2023-07-24T18:36:42.568Z,97403.88
2023-07-24T18:39:47.832Z,97396.78
2023-07-24T18:42:51.248Z,97387.72
2023-07-24T18:45:58.172Z,97386.91
2023-07-24T18:49:01.786Z,97391.59
2023-07-24T18:52:07.014Z,97383.97
2023-07-24T18:55:12.147Z,97377.06
2023-07-24T18:58:16.157Z,97367.53
2023-07-24T19:01:19.812Z,97348.19
2023-07-24T19:04:24.007Z,97336.41
2023-07-24T19:07:27.728Z,97316.09
2023-07-24T19:10:33.433Z,97322.41
2023-07-24T19:13:37.375Z,97312.56
2023-07-24T19:16:41.515Z,97307.88
2023-07-24T19:19:45.415Z,97291.44
2023-07-24T19:22:49.692Z,97294.50
2023-07-24T19:25:54.669Z,97288.22
2023-07-24T19:28:59.308Z,97286.63
2023-07-24T19:32:03.187Z,97276.47
2023-07-24T19:35:08.145Z,97276.13
2023-07-24T19:38:13.099Z,97270.66
2023-07-24T19:41:18.520Z,97266.28
2023-07-24T19:44:22.110Z,97266.97
2023-07-24T19:47:26.346Z,97263.25
2023-07-24T19:50:29.875Z,97259.53
2023-07-24T19:53:33.773Z,97260.53
2023-07-24T19:56:38.904Z,97258.72
2023-07-24T19:59:42.894Z,97247.13
2023-07-24T20:02:46.736Z,97252.78
2023-07-24T20:05:55.704Z,97245.84
2023-07-24T20:09:01.032Z,97246.81
2023-07-24T20:12:07.724Z,97252.91
2023-07-24T20:15:12.299Z,97245.31
2023-07-24T20:18:16.406Z,97244.50
2023-07-24T20:21:22.672Z,97242.09
2023-07-24T20:24:27.020Z,97240.47
2023-07-24T20:27:31.939Z,97246.75
2023-07-24T20:30:35.833Z,97249.50
2023-07-24T20:33:39.416Z,97253.69
2023-07-24T20:36:44.186Z,97252.72
2023-07-24T20:39:47.719Z,97270.59
2023-07-24T20:42:53.128Z,97279.13
2023-07-24T20:45:56.748Z,97277.03
2023-07-24T20:49:01.670Z,97272.53
2023-07-24T20:52:06.066Z,97284.59
2023-07-24T20:55:10.968Z,97282.19
2023-07-24T20:58:15.902Z,97288.78
2023-07-24T21:01:22.960Z,97297.28
2023-07-24T21:04:26.629Z,97286.97
2023-07-24T21:07:30.752Z,97301.16
2023-07-24T21:10:34.676Z,97286.34
2023-07-24T21:13:39.933Z,97284.09
2023-07-24T21:16:43.489Z,97287.66
2023-07-24T21:19:48.226Z,97304.88
2023-07-24T21:22:51.774Z,97306.50
2023-07-24T21:25:57.233Z,97299.72
2023-07-24T21:29:02.253Z,97292.63
2023-07-24T21:32:07.772Z,97280.38
2023-07-24T21:35:11.408Z,97276.34
2023-07-24T21:38:15.405Z,97274.28
2023-07-24T21:41:18.991Z,97266.38
2023-07-24T21:44:24.280Z,97254.13
2023-07-24T21:47:28.039Z,97262.66
2023-07-24T21:50:32.105Z,97265.22
2023-07-24T21:53:37.510Z,97264.41
2023-07-24T21:56:41.536Z,97265.22
2023-07-24T21:59:46.758Z,97267.63
2023-07-24T22:02:51.089Z,97252.00
2023-07-24T22:05:54.912Z,97275.84
2023-07-24T22:08:59.436Z,97280.50
2023-07-24T22:12:03.506Z,97281.63
2023-07-24T22:15:10.234Z,97287.41
2023-07-24T22:18:14.030Z,97279.53
2023-07-24T22:21:17.940Z,97279.84
2023-07-24T22:24:21.674Z,97287.25
2023-07-24T22:27:26.256Z,97273.91
2023-07-24T22:30:31.662Z,97280.50
2023-07-24T22:33:36.532Z,97284.97
2023-07-24T22:36:41.097Z,97278.50
2023-07-24T22:39:45.293Z,97263.38
2023-07-24T22:42:48.838Z,97269.78
2023-07-24T22:45:54.368Z,97271.06
2023-07-24T22:48:57.947Z,97273.63
2023-07-24T22:52:01.993Z,97271.28
2023-07-24T22:55:06.779Z,97281.25
2023-07-24T22:58:10.732Z,97286.84
2023-07-24T23:01:15.652Z,97289.75
2023-07-24T23:04:22.548Z,97288.25
2023-07-24T23:07:26.012Z,97288.38
2023-07-24T23:10:30.237Z,97286.59
2023-07-24T23:13:33.699Z,97287.03
2023-07-24T23:16:39.348Z,97293.44
2023-07-24T23:19:43.011Z,97290.81
2023-07-24T23:22:48.083Z,97289.50
2023-07-24T23:25:51.623Z,97288.50
2023-07-24T23:28:58.557Z,97287.22
2023-07-24T23:32:04.117Z,97294.13
2023-07-24T23:35:09.044Z,97296.03
2023-07-24T23:38:12.744Z,97294.44
2023-07-24T23:41:17.155Z,97302.94
2023-07-24T23:44:20.959Z,97299.38
2023-07-24T23:47:26.390Z,97291.81
2023-07-24T23:50:30.426Z,97299.50
2023-07-24T23:53:34.134Z,97300.94
2023-07-24T23:56:37.715Z,97302.56
2023-07-24T23:59:41.494Z,97304.97
